createdAt,value
2017-11-18T00:00:00.451Z,22.83
2017-11-18T00:02:28.713Z,26.27
2017-11-18T00:04:57.004Z,25.17
2017-11-18T00:07:25.327Z,31.40
2017-11-18T00:09:53.597Z,28.67
2017-11-18T00:12:21.863Z,29.60
2017-11-18T00:14:50.145Z,26.20
2017-11-18T00:17:18.440Z,25.87
2017-11-18T00:19:46.722Z,28.80
2017-11-18T00:22:15.040Z,34.07
2017-11-18T00:24:43.313Z,27.93
2017-11-18T00:27:11.573Z,34.60
2017-11-18T00:29:40.161Z,32.43
2017-11-18T00:32:08.471Z,31.00
2017-11-18T00:34:36.749Z,37.60
2017-11-18T00:37:05.038Z,34.30
2017-11-18T00:39:34.079Z,31.30
2017-11-18T00:42:02.335Z,33.07
2017-11-18T00:44:30.613Z,39.60
2017-11-18T00:46:58.899Z,36.77
2017-11-18T00:49:27.227Z,37.00
2017-11-18T00:51:55.462Z,37.70
2017-11-18T00:54:23.716Z,35.43
2017-11-18T00:56:51.989Z,41.80
2017-11-18T00:59:20.365Z,45.33
2017-11-18T01:01:48.666Z,36.53
2017-11-18T01:04:16.988Z,38.13
2017-11-18T01:06:45.253Z,41.10
2017-11-18T01:09:13.527Z,38.30
2017-11-18T01:11:41.804Z,42.07
2017-11-18T01:14:10.130Z,34.27
2017-11-18T01:16:38.390Z,48.20
2017-11-18T01:19:07.227Z,38.50
2017-11-18T01:21:35.476Z,37.10
2017-11-18T01:24:03.765Z,38.07
2017-11-18T01:26:32.084Z,40.30
2017-11-18T01:29:00.365Z,38.33
2017-11-18T01:31:28.694Z,40.53
2017-11-18T01:33:56.933Z,43.87
2017-11-18T01:36:25.210Z,43.20
2017-11-18T01:38:53.473Z,38.67
2017-11-18T01:41:21.776Z,40.17
2017-11-18T01:43:50.033Z,42.83
2017-11-18T01:46:18.309Z,44.83
2017-11-18T01:48:46.597Z,50.47
2017-11-18T01:51:14.853Z,43.17
2017-11-18T01:53:43.205Z,40.57
2017-11-18T01:56:11.498Z,42.53
2017-11-18T01:58:39.809Z,38.27
2017-11-18T02:01:08.016Z,44.03
2017-11-18T02:03:36.297Z,46.60
2017-11-18T02:06:04.554Z,38.97
2017-11-18T02:08:32.877Z,39.30
2017-11-18T02:11:01.117Z,44.37
2017-11-18T02:13:29.395Z,44.33
2017-11-18T02:15:57.665Z,41.93
2017-11-18T02:18:25.925Z,49.57
2017-11-18T02:20:54.206Z,42.07
2017-11-18T02:23:22.480Z,44.90
2017-11-18T02:25:50.777Z,42.23
2017-11-18T02:28:19.054Z,44.83
2017-11-18T02:30:47.365Z,40.43
2017-11-18T02:33:15.879Z,43.67
2017-11-18T02:35:44.896Z,35.97
2017-11-18T02:38:13.197Z,46.50
2017-11-18T02:40:41.481Z,34.00
2017-11-18T02:43:09.728Z,34.20
2017-11-18T02:45:38.048Z,36.33
2017-11-18T02:48:06.750Z,36.37
2017-11-18T02:50:35.033Z,35.27
2017-11-18T02:53:03.291Z,37.40
2017-11-18T02:55:31.553Z,36.87
2017-11-18T02:57:59.842Z,32.63
2017-11-18T03:00:28.314Z,37.27
2017-11-18T03:02:56.610Z,33.13
2017-11-18T03:05:24.863Z,37.03
2017-11-18T03:07:53.145Z,37.57
2017-11-18T03:10:21.457Z,34.70
2017-11-18T03:12:49.757Z,38.70
2017-11-18T03:15:18.045Z,32.57
2017-11-18T03:17:46.307Z,39.40
2017-11-18T03:20:14.608Z,35.03
2017-11-18T03:22:42.876Z,38.00
2017-11-18T03:25:11.157Z,37.43
2017-11-18T03:27:39.413Z,37.33
2017-11-18T03:30:07.726Z,35.60
2017-11-18T03:32:35.981Z,37.17
2017-11-18T03:35:04.464Z,30.67
2017-11-18T03:37:32.971Z,35.83
2017-11-18T03:40:01.227Z,33.10
2017-11-18T03:42:29.509Z,39.17
2017-11-18T03:44:57.782Z,40.60
2017-11-18T03:47:26.081Z,34.70
2017-11-18T03:49:55.135Z,35.73
2017-11-18T03:52:23.405Z,31.03
2017-11-18T03:54:51.747Z,36.57
2017-11-18T03:57:20.072Z,39.00
2017-11-18T03:59:48.333Z,42.43
2017-11-18T04:02:16.587Z,46.53
2017-11-18T04:04:44.877Z,46.67
2017-11-18T04:07:13.134Z,38.23
2017-11-18T04:09:41.390Z,43.87
2017-11-18T04:12:09.669Z,40.70
2017-11-18T04:14:37.964Z,35.33
2017-11-18T04:17:06.245Z,42.37
2017-11-18T04:19:34.525Z,42.87
2017-11-18T04:22:03.489Z,40.90
2017-11-18T04:24:31.777Z,44.80
2017-11-18T04:27:00.050Z,49.83
2017-11-18T04:29:28.377Z,44.47
2017-11-18T04:31:56.653Z,39.83
2017-11-18T04:34:24.925Z,43.90
2017-11-18T04:36:53.195Z,38.00
2017-11-18T04:39:21.533Z,40.20
2017-11-18T04:41:49.782Z,45.67
2017-11-18T04:44:18.092Z,48.63
2017-11-18T04:46:46.362Z,45.17
2017-11-18T04:49:14.635Z,47.40
2017-11-18T04:51:42.918Z,43.27
2017-11-18T04:54:11.261Z,42.10
2017-11-18T04:56:39.544Z,40.17
2017-11-18T04:59:07.812Z,44.20
2017-11-18T05:01:36.244Z,37.23
2017-11-18T05:04:04.507Z,40.30
2017-11-18T05:06:32.990Z,36.10
2017-11-18T05:09:01.258Z,35.60
2017-11-18T05:11:29.548Z,39.70
2017-11-18T05:13:57.813Z,35.03
2017-11-18T05:16:26.110Z,34.87
2017-11-18T05:18:54.369Z,33.20
2017-11-18T05:21:22.854Z,35.13
2017-11-18T05:23:51.100Z,37.57
2017-11-18T05:26:19.378Z,35.60
2017-11-18T05:28:47.657Z,38.53
2017-11-18T05:31:15.944Z,32.80
2017-11-18T05:33:44.230Z,35.40
2017-11-18T05:36:12.526Z,35.63
2017-11-18T05:38:40.815Z,37.80
2017-11-18T05:41:09.113Z,41.67
2017-11-18T05:43:37.426Z,33.30
2017-11-18T05:46:05.666Z,37.67
2017-11-18T05:48:33.959Z,50.73
2017-11-18T05:51:02.229Z,39.40
2017-11-18T05:53:30.641Z,32.33
2017-11-18T05:55:58.925Z,34.20
2017-11-18T05:58:27.180Z,36.70
2017-11-18T06:00:55.489Z,37.40
2017-11-18T06:03:23.749Z,36.33
2017-11-18T06:05:52.001Z,38.03
2017-11-18T06:08:20.338Z,39.80
2017-11-18T06:10:48.596Z,37.00
2017-11-18T06:13:16.877Z,40.73
2017-11-18T06:15:45.135Z,38.97
2017-11-18T06:18:13.426Z,46.50
2017-11-18T06:20:41.677Z,35.70
2017-11-18T06:23:09.968Z,43.57
2017-11-18T06:25:38.228Z,53.80
2017-11-18T06:28:06.518Z,32.77
2017-11-18T06:30:34.781Z,33.23
2017-11-18T06:33:03.027Z,32.30
2017-11-18T06:35:31.377Z,34.73
2017-11-18T06:37:59.637Z,34.60
2017-11-18T06:40:28.087Z,31.33
2017-11-18T06:42:56.345Z,36.87
2017-11-18T06:45:24.634Z,25.20
2017-11-18T06:47:52.902Z,32.87
2017-11-18T06:50:21.181Z,31.43
2017-11-18T06:52:49.455Z,29.57
2017-11-18T06:55:17.740Z,31.03
2017-11-18T06:57:46.000Z,33.60
2017-11-18T07:00:14.559Z,30.33
2017-11-18T07:02:42.875Z,31.27
2017-11-18T07:05:11.159Z,33.30
2017-11-18T07:07:39.426Z,29.10
2017-11-18T07:10:07.677Z,36.33
2017-11-18T07:12:35.970Z,30.00
2017-11-18T07:15:04.253Z,35.27
2017-11-18T07:17:32.566Z,33.53
2017-11-18T07:20:01.264Z,31.67
2017-11-18T07:22:29.591Z,36.07
2017-11-18T07:24:57.824Z,32.73
2017-11-18T07:27:26.134Z,30.20
2017-11-18T07:29:54.405Z,33.77
2017-11-18T07:32:23.585Z,31.13
2017-11-18T07:34:51.943Z,31.37
2017-11-18T07:37:20.226Z,30.83
2017-11-18T07:39:49.215Z,31.40
2017-11-18T07:42:17.524Z,34.30
2017-11-18T07:44:45.821Z,38.93
2017-11-18T07:47:14.085Z,32.50
2017-11-18T07:49:42.356Z,32.40
2017-11-18T07:52:10.620Z,30.13
2017-11-18T07:54:38.900Z,34.80
2017-11-18T07:57:07.344Z,32.97
2017-11-18T07:59:35.621Z,30.80
2017-11-18T08:02:03.919Z,37.83
2017-11-18T08:04:32.337Z,36.60
2017-11-18T08:07:00.636Z,31.97
2017-11-18T08:09:29.066Z,39.07
2017-11-18T08:11:57.448Z,30.00
2017-11-18T08:14:25.744Z,32.00
2017-11-18T08:16:54.004Z,34.03
2017-11-18T08:19:22.295Z,32.67
2017-11-18T08:21:50.727Z,39.07
2017-11-18T08:24:19.386Z,33.87
2017-11-18T08:26:47.662Z,35.77
2017-11-18T08:29:15.952Z,37.30
2017-11-18T08:31:44.237Z,35.83
2017-11-18T08:34:12.515Z,33.70
2017-11-18T08:36:41.891Z,34.33
2017-11-18T08:39:10.217Z,31.80
2017-11-18T08:41:38.467Z,36.23
2017-11-18T08:44:06.809Z,39.97
2017-11-18T08:46:35.068Z,32.70
2017-11-18T08:49:03.350Z,33.80
2017-11-18T08:51:31.649Z,30.73
2017-11-18T08:53:59.945Z,37.10
2017-11-18T08:56:28.187Z,36.87
2017-11-18T08:59:00.509Z,30.60
2017-11-18T09:01:28.799Z,29.83
2017-11-18T09:03:57.101Z,31.23
2017-11-18T09:06:25.356Z,30.00
2017-11-18T09:08:53.646Z,33.33
2017-11-18T09:11:21.932Z,28.20
2017-11-18T09:13:50.210Z,28.70
2017-11-18T09:16:18.474Z,28.90
2017-11-18T09:18:46.772Z,28.50
2017-11-18T09:21:15.033Z,29.17
2017-11-18T09:23:43.365Z,26.70
2017-11-18T09:26:11.626Z,23.53
2017-11-18T09:28:40.166Z,27.73
2017-11-18T09:31:08.462Z,21.67
2017-11-18T09:33:36.735Z,32.73
2017-11-18T09:36:05.026Z,25.83
2017-11-18T09:38:33.294Z,23.50
2017-11-18T09:41:01.580Z,28.07
2017-11-18T09:43:29.997Z,25.70
2017-11-18T09:45:58.245Z,30.50
2017-11-18T09:48:26.577Z,20.97
2017-11-18T09:50:54.853Z,21.80
2017-11-18T09:53:23.109Z,18.87
2017-11-18T09:55:51.389Z,23.27
2017-11-18T09:58:19.708Z,22.40
2017-11-18T10:00:48.870Z,25.60
2017-11-18T10:03:17.214Z,19.93
2017-11-18T10:05:45.473Z,22.03
2017-11-18T10:08:13.748Z,15.80
2017-11-18T10:10:42.014Z,15.70
2017-11-18T10:13:10.315Z,13.97
2017-11-18T10:15:38.574Z,20.00
2017-11-18T10:18:06.863Z,17.40
2017-11-18T10:20:35.168Z,17.27
2017-11-18T10:23:03.519Z,15.33
2017-11-18T10:25:31.753Z,25.93
2017-11-18T10:28:00.029Z,13.17
2017-11-18T10:30:29.068Z,15.40
2017-11-18T10:32:57.352Z,14.17
2017-11-18T10:35:25.629Z,14.20
2017-11-18T10:37:53.951Z,12.87
2017-11-18T10:40:22.852Z,19.87
2017-11-18T10:42:51.160Z,17.53
2017-11-18T10:45:19.555Z,13.00
2017-11-18T10:47:47.811Z,13.87
2017-11-18T10:50:16.370Z,9.10
2017-11-18T10:52:44.705Z,19.57
2017-11-18T10:55:12.970Z,16.70
2017-11-18T10:57:41.492Z,19.43
2017-11-18T11:00:09.785Z,14.70
2017-11-18T11:02:38.073Z,13.40
2017-11-18T11:05:06.387Z,14.80
2017-11-18T11:07:34.631Z,17.60
2017-11-18T11:10:02.891Z,15.87
2017-11-18T11:12:31.173Z,11.17
2017-11-18T11:14:59.497Z,20.80
2017-11-18T11:17:27.781Z,12.60
2017-11-18T11:19:56.080Z,14.50
2017-11-18T11:22:24.377Z,10.40
2017-11-18T11:24:52.672Z,8.17
2017-11-18T11:27:20.942Z,9.83
2017-11-18T11:29:49.244Z,12.03
2017-11-18T11:32:17.872Z,13.70
2017-11-18T11:34:46.138Z,14.07
2017-11-18T11:37:14.414Z,14.53
2017-11-18T11:39:42.693Z,9.93
2017-11-18T11:42:10.961Z,17.43
2017-11-18T11:44:39.228Z,15.63
2017-11-18T11:47:07.512Z,13.90
2017-11-18T11:49:35.816Z,12.37
2017-11-18T11:52:04.094Z,12.80
2017-11-18T11:54:32.374Z,20.80
2017-11-18T11:57:00.627Z,8.80
2017-11-18T11:59:28.903Z,12.70
2017-11-18T12:01:57.161Z,9.70
2017-11-18T12:04:25.429Z,7.03
2017-11-18T12:06:53.710Z,8.30
2017-11-18T12:09:21.986Z,9.53
2017-11-18T12:11:50.252Z,8.20
2017-11-18T12:14:18.525Z,7.20
2017-11-18T12:16:46.795Z,9.80
2017-11-18T12:19:15.096Z,7.27
2017-11-18T12:21:43.376Z,9.27
2017-11-18T12:24:11.662Z,14.50
2017-11-18T12:26:39.933Z,5.43
2017-11-18T12:29:08.195Z,6.33
2017-11-18T12:31:36.482Z,6.83
2017-11-18T12:34:04.763Z,5.53
2017-11-18T12:36:33.058Z,7.17
2017-11-18T12:39:01.338Z,9.87
2017-11-18T12:41:29.773Z,12.90
2017-11-18T12:43:58.012Z,5.77
2017-11-18T12:46:26.249Z,4.30
2017-11-18T12:48:54.533Z,7.83
2017-11-18T12:51:22.826Z,8.40
2017-11-18T12:53:51.094Z,6.53
2017-11-18T12:56:19.581Z,11.17
2017-11-18T12:58:47.835Z,10.30
2017-11-18T13:01:16.111Z,5.80
2017-11-18T13:03:44.382Z,6.43
2017-11-18T13:06:12.641Z,9.60
2017-11-18T13:08:40.920Z,5.70
2017-11-18T13:11:09.200Z,10.10
2017-11-18T13:13:37.469Z,7.17
2017-11-18T13:16:05.760Z,8.70
2017-11-18T13:18:34.058Z,6.50
2017-11-18T13:21:02.586Z,7.37
2017-11-18T13:23:31.556Z,6.40
2017-11-18T13:26:00.873Z,5.50
2017-11-18T13:28:29.233Z,6.87
2017-11-18T13:30:57.500Z,7.47
2017-11-18T13:33:25.853Z,7.47
2017-11-18T13:35:54.106Z,8.53
2017-11-18T13:38:22.385Z,6.20
2017-11-18T13:40:50.637Z,5.90
2017-11-18T13:43:18.910Z,10.90
2017-11-18T13:45:47.210Z,5.10
2017-11-18T13:48:16.802Z,6.60
2017-11-18T13:50:45.069Z,7.43
2017-11-18T13:53:13.369Z,9.30
2017-11-18T13:55:41.682Z,7.27
2017-11-18T13:58:09.950Z,5.40
2017-11-18T14:00:39.154Z,5.30
2017-11-18T14:03:07.405Z,7.40
2017-11-18T14:05:35.729Z,6.07
2017-11-18T14:08:03.985Z,3.60
2017-11-18T14:10:32.262Z,8.23
2017-11-18T14:13:01.086Z,5.77
2017-11-18T14:15:29.359Z,8.10
2017-11-18T14:17:57.604Z,5.23
2017-11-18T14:20:26.249Z,8.80
2017-11-18T14:22:54.737Z,8.70
2017-11-18T14:25:23.012Z,4.80
2017-11-18T14:27:51.299Z,6.57
2017-11-18T14:30:19.565Z,5.25
2017-11-18T14:32:47.861Z,3.80
2017-11-18T14:35:16.398Z,7.87
2017-11-18T14:37:44.687Z,7.27
2017-11-18T14:40:12.975Z,9.07
2017-11-18T14:42:41.290Z,7.17
2017-11-18T14:45:09.591Z,8.53
2017-11-18T14:47:37.849Z,9.20
2017-11-18T14:50:06.146Z,7.93
2017-11-18T14:52:34.480Z,10.23
2017-11-18T14:55:02.884Z,9.07
2017-11-18T14:57:31.139Z,9.27
2017-11-18T14:59:59.515Z,8.57
2017-11-18T15:02:27.768Z,7.47
2017-11-18T15:04:56.069Z,7.10
2017-11-18T15:07:24.340Z,9.23
2017-11-18T15:09:52.648Z,6.77
2017-11-18T15:12:21.518Z,5.18
2017-11-18T15:14:55.301Z,8.23
2017-11-18T15:17:29.087Z,10.73
2017-11-18T15:20:03.947Z,8.23
2017-11-18T15:25:44.676Z,9.90
2017-11-18T15:31:17.817Z,9.73
2017-11-18T15:33:51.597Z,10.07
2017-11-18T15:36:22.675Z,7.45
2017-11-18T15:38:51.437Z,9.52
2017-11-18T15:41:19.853Z,9.15
2017-11-18T15:43:53.705Z,11.93
2017-11-18T15:46:21.988Z,6.90
2017-11-18T15:51:50.846Z,12.27
2017-11-18T15:54:24.644Z,13.00
2017-11-18T15:59:52.420Z,7.37
2017-11-18T16:02:22.142Z,17.23
2017-11-18T16:05:02.307Z,4.30
2017-11-18T16:07:33.998Z,6.97
2017-11-18T16:10:02.287Z,3.40
2017-11-18T16:12:30.528Z,5.93
2017-11-18T16:14:58.818Z,7.27
2017-11-18T16:17:27.069Z,8.07
2017-11-18T16:19:55.849Z,4.93
2017-11-18T16:22:24.153Z,3.67
2017-11-18T16:24:52.411Z,4.47
2017-11-18T16:27:20.681Z,6.35
2017-11-18T16:29:48.963Z,3.97
2017-11-18T16:32:17.229Z,4.50
2017-11-18T16:34:45.496Z,4.60
2017-11-18T16:37:13.840Z,4.23
2017-11-18T16:39:42.325Z,8.50
2017-11-18T16:42:10.628Z,4.17
2017-11-18T16:44:38.875Z,4.23
2017-11-18T16:47:07.122Z,7.30
2017-11-18T16:49:35.430Z,11.50
2017-11-18T16:52:03.681Z,4.33
2017-11-18T16:54:31.957Z,4.07
2017-11-18T16:57:00.523Z,7.40
2017-11-18T16:59:28.813Z,4.47
2017-11-18T17:01:57.095Z,6.33
2017-11-18T17:04:25.380Z,7.30
2017-11-18T17:06:53.642Z,5.90
2017-11-18T17:09:21.972Z,8.30
2017-11-18T17:11:50.268Z,5.17
2017-11-18T17:14:18.563Z,10.03
2017-11-18T17:16:46.911Z,3.30
2017-11-18T17:19:15.196Z,5.73
2017-11-18T17:21:43.481Z,3.50
2017-11-18T17:24:11.754Z,9.65
2017-11-18T17:26:40.153Z,4.70
2017-11-18T17:29:08.428Z,6.33
2017-11-18T17:31:36.762Z,8.60
2017-11-18T17:34:05.114Z,6.20
2017-11-18T17:36:33.464Z,7.10
2017-11-18T17:39:01.802Z,5.53
2017-11-18T17:41:30.153Z,7.90
2017-11-18T17:43:58.413Z,14.50
2017-11-18T17:46:26.709Z,8.40
2017-11-18T17:48:54.968Z,6.97
2017-11-18T17:51:23.286Z,8.70
2017-11-18T17:53:54.505Z,4.57
2017-11-18T17:56:22.827Z,8.33
2017-11-18T17:58:51.180Z,6.67
2017-11-18T18:01:19.554Z,11.13
2017-11-18T18:03:47.809Z,8.00
2017-11-18T18:06:16.057Z,21.42
2017-11-18T18:08:44.329Z,8.23
2017-11-18T18:11:12.611Z,9.57
2017-11-18T18:13:40.948Z,8.10
2017-11-18T18:16:09.229Z,8.10
2017-11-18T18:18:38.248Z,11.00
2017-11-18T18:21:06.518Z,11.77
2017-11-18T18:23:34.865Z,6.40
2017-11-18T18:26:03.214Z,5.10
2017-11-18T18:28:31.490Z,9.00
2017-11-18T18:31:00.370Z,8.97
2017-11-18T18:33:28.646Z,13.73
2017-11-18T18:35:56.937Z,9.03
2017-11-18T18:38:25.243Z,8.67
2017-11-18T18:40:53.530Z,9.20
2017-11-18T18:43:21.825Z,9.17
2017-11-18T18:45:50.130Z,10.77
2017-11-18T18:48:18.404Z,10.77
2017-11-18T18:50:46.782Z,12.20
2017-11-18T18:53:15.061Z,16.67
2017-11-18T18:55:43.345Z,9.55
2017-11-18T18:58:11.634Z,13.43
2017-11-18T19:00:39.965Z,13.73
2017-11-18T19:03:08.931Z,13.40
2017-11-18T19:05:37.198Z,16.73
2017-11-18T19:08:05.805Z,12.73
2017-11-18T19:10:34.111Z,12.37
2017-11-18T19:13:02.470Z,11.20
2017-11-18T19:15:30.885Z,14.63
2017-11-18T19:17:59.137Z,9.10
2017-11-18T19:20:27.745Z,9.20
2017-11-18T19:22:56.037Z,11.47
2017-11-18T19:25:24.320Z,14.97
2017-11-18T19:27:52.602Z,10.50
2017-11-18T19:30:20.862Z,21.23
2017-11-18T19:32:49.157Z,24.60
2017-11-18T19:35:17.520Z,12.13
2017-11-18T19:37:45.785Z,13.00
2017-11-18T19:40:14.987Z,21.70
2017-11-18T19:42:43.246Z,10.80
2017-11-18T19:45:11.558Z,17.37
2017-11-18T19:47:39.907Z,15.53
2017-11-18T19:50:08.226Z,12.93
2017-11-18T19:52:36.533Z,12.17
2017-11-18T19:55:04.937Z,16.87
2017-11-18T19:57:33.218Z,16.07
2017-11-18T20:00:01.473Z,17.70
2017-11-18T20:02:29.781Z,14.07
2017-11-18T20:04:58.073Z,12.47
2017-11-18T20:07:26.354Z,12.03
2017-11-18T20:09:54.605Z,14.27
2017-11-18T20:12:22.891Z,13.35
2017-11-18T20:14:51.204Z,13.03
2017-11-18T20:17:19.506Z,12.73
2017-11-18T20:19:47.829Z,12.90
2017-11-18T20:22:16.105Z,10.40
2017-11-18T20:24:44.393Z,8.77
2017-11-18T20:27:12.684Z,11.18
2017-11-18T20:29:40.961Z,9.90
2017-11-18T20:32:09.250Z,9.07
2017-11-18T20:34:37.537Z,10.50
2017-11-18T20:37:05.812Z,13.67
2017-11-18T20:39:34.511Z,12.93
2017-11-18T20:42:02.743Z,12.47
2017-11-18T20:44:31.013Z,12.57
2017-11-18T20:46:59.313Z,12.43
2017-11-18T20:49:27.564Z,11.67
2017-11-18T20:51:55.880Z,11.68
2017-11-18T20:54:24.173Z,16.10
2017-11-18T20:56:52.472Z,12.63
2017-11-18T20:59:20.729Z,14.00
2017-11-18T21:01:49.024Z,14.13
2017-11-18T21:04:17.326Z,11.20
2017-11-18T21:06:45.605Z,13.33
2017-11-18T21:09:13.889Z,11.53
2017-11-18T21:11:42.157Z,18.63
2017-11-18T21:14:10.459Z,16.40
2017-11-18T21:16:38.772Z,12.73
2017-11-18T21:19:07.100Z,16.00
2017-11-18T21:21:35.373Z,19.60
2017-11-18T21:24:04.619Z,18.12
2017-11-18T21:26:32.878Z,19.60
2017-11-18T21:29:01.169Z,17.77
2017-11-18T21:31:29.582Z,15.93
2017-11-18T21:33:57.881Z,18.42
2017-11-18T21:36:26.145Z,19.30
2017-11-18T21:38:54.420Z,9.20
2017-11-18T21:41:22.797Z,14.43
2017-11-18T21:43:51.118Z,13.83
2017-11-18T21:46:19.451Z,19.12
2017-11-18T21:48:47.729Z,15.37
2017-11-18T21:51:16.045Z,19.17
2017-11-18T21:53:44.298Z,13.70
2017-11-18T21:56:12.581Z,16.35
2017-11-18T21:58:41.421Z,15.50
2017-11-18T22:01:09.716Z,16.77
2017-11-18T22:03:38.009Z,22.17
2017-11-18T22:06:06.270Z,15.43
2017-11-18T22:08:34.560Z,16.70
2017-11-18T22:11:02.828Z,13.60
2017-11-18T22:13:31.136Z,21.77
2017-11-18T22:15:59.441Z,15.37
2017-11-18T22:18:27.738Z,16.53
2017-11-18T22:20:56.023Z,18.57
2017-11-18T22:23:24.409Z,15.60
2017-11-18T22:25:52.664Z,16.10
2017-11-18T22:28:20.959Z,13.03
2017-11-18T22:30:49.216Z,16.55
2017-11-18T22:33:18.059Z,16.52
2017-11-18T22:35:46.439Z,19.20
2017-11-18T22:38:14.791Z,15.70
2017-11-18T22:40:43.061Z,12.63
2017-11-18T22:43:11.340Z,17.20
2017-11-18T22:45:39.626Z,16.40
2017-11-18T22:48:08.483Z,12.77
2017-11-18T22:50:37.226Z,17.43
2017-11-18T22:53:06.241Z,14.27
2017-11-18T22:55:34.515Z,14.30
2017-11-18T22:58:04.801Z,17.00
2017-11-18T23:00:40.964Z,20.10
2017-11-18T23:03:09.208Z,13.15
2017-11-18T23:05:37.484Z,13.30
2017-11-18T23:08:05.805Z,7.73
2017-11-18T23:10:34.094Z,12.70
2017-11-18T23:13:02.431Z,17.90
2017-11-18T23:15:30.702Z,13.67
2017-11-18T23:17:58.961Z,15.03
2017-11-18T23:20:27.386Z,16.67
2017-11-18T23:22:55.682Z,15.10
2017-11-18T23:25:23.946Z,16.50
2017-11-18T23:27:52.306Z,16.40
2017-11-18T23:30:20.568Z,16.27
2017-11-18T23:32:48.844Z,13.10
2017-11-18T23:35:17.236Z,9.35
2017-11-18T23:37:45.490Z,13.70
2017-11-18T23:40:13.831Z,12.80
2017-11-18T23:42:42.063Z,13.60
2017-11-18T23:45:10.346Z,6.17
2017-11-18T23:47:38.633Z,11.47
2017-11-18T23:50:06.913Z,12.33
2017-11-18T23:52:35.160Z,6.33
2017-11-18T23:55:03.449Z,10.10
2017-11-18T23:57:31.713Z,8.90
2017-11-18T23:59:59.992Z,9.57
